Etusivu
METAR-TAF:

METAR-TAF

Lentoasemat :

Zaragoza, Espanja

Leveyspiiri: 41-40N, Pituuspiiri: 001-01W, korkeus merenpinnasta: 263 m

Tämänhetkinen sää

Tämä raportti tehtiin 22 minuuttia sitten, kello 10.30 UTC
Tuuli 5 kn luoteesta, vaihdellen lännen ja pohjoisen välillä
Lämpötila 10°C
Kosteus 66%
Ilmanpaine 1028 hPa
Näkyvyys 10 km tai enemmän
ei pilviä alle 1500 m:ssä eikä cumulonimbus-pilviä

METAR: LEZG 241030Z 31005KT 260V350 CAVOK 10/04 Q1028

Aika: 11:52 (10:52 UTC)

Sääennuste

Tämä raportti tehtiin 5 tuntia ja 52 minuuttia sitten, kello 05.00 UTC
Ennuste voimassa 24. päivästä klo 06 UTC - 25. päivään klo 06 UTC
Tuuli 8 kn lännestä/lounaasta
Näkyvyys 10 km tai enemmän
ei pilviä alle 1500 m:ssä eikä cumulonimbus-pilviä
Tulossa
24. päivästä klo 07 UTC - 24. päivään klo 09 UTC
Tuuli 6 kn lännestä/luoteesta

TAF: LEZG 240500Z 2406/2506 24008KT CAVOK TX23/2415Z TN04/2407Z BECMG 2407/2409 30006KT

Säähavainnot ja -ennusteet yli 4000 lentoasemalta (METAR- ja TAF-raportit).

Käytössä olevat sääasemat on merkitty karttaan keltaisilla ja punaisilla pisteillä.

Aseta hiiri pisteen päälle nähdäksesi sääaseman nimen.

Klikkaa sitten nähdäksesi säähavainnot ja -ennusteet.

Kartan vaihtaminen: klikkaa mustalla rastilla varustettuja vihreitä pisteitä, niin voit zoomata sisään; viivalla varustettua vihreää pistettä, niin voit zoomata ulos tai vihreitä nuolia, niin pääset viereisille kartoille.


METAR-TAF: